sensor_id;sensor_type;location;lat;lon;timestamp;temperature;humidity
22682;DHT22;11508;50.856;4.380;2023-07-29T00:01:50;19.60;57.90
22682;DHT22;11508;50.856;4.380;2023-07-29T00:04:16;19.60;61.90
22682;DHT22;11508;50.856;4.380;2023-07-29T00:06:42;19.50;67.00
22682;DHT22;11508;50.856;4.380;2023-07-29T00:09:07;19.50;69.60
22682;DHT22;11508;50.856;4.380;2023-07-29T00:11:33;19.50;70.50
22682;DHT22;11508;50.856;4.380;2023-07-29T00:14:02;19.30;74.70
22682;DHT22;11508;50.856;4.380;2023-07-29T00:16:28;19.30;80.70
22682;DHT22;11508;50.856;4.380;2023-07-29T00:18:54;19.20;83.70
22682;DHT22;11508;50.856;4.380;2023-07-29T00:21:19;19.10;87.60
22682;DHT22;11508;50.856;4.380;2023-07-29T00:23:45;19.10;92.60
22682;DHT22;11508;50.856;4.380;2023-07-29T00:26:11;19.00;92.60
22682;DHT22;11508;50.856;4.380;2023-07-29T00:28:37;18.90;94.50
22682;DHT22;11508;50.856;4.380;2023-07-29T00:31:02;18.90;96.30
22682;DHT22;11508;50.856;4.380;2023-07-29T00:33:28;18.90;97.30
22682;DHT22;11508;50.856;4.380;2023-07-29T00:35:54;18.90;96.40
22682;DHT22;11508;50.856;4.380;2023-07-29T00:38:19;18.90;96.60
22682;DHT22;11508;50.856;4.380;2023-07-29T00:40:45;18.80;97.80
22682;DHT22;11508;50.856;4.380;2023-07-29T00:43:11;18.90;96.50
22682;DHT22;11508;50.856;4.380;2023-07-29T00:45:37;18.90;94.90
22682;DHT22;11508;50.856;4.380;2023-07-29T00:48:04;18.90;98.50
22682;DHT22;11508;50.856;4.380;2023-07-29T00:50:31;19.00;95.10
22682;DHT22;11508;50.856;4.380;2023-07-29T00:52:57;19.10;90.80
22682;DHT22;11508;50.856;4.380;2023-07-29T00:55:23;19.30;86.10
22682;DHT22;11508;50.856;4.380;2023-07-29T00:57:50;19.10;83.80
22682;DHT22;11508;50.856;4.380;2023-07-29T01:00:18;19.00;92.20
22682;DHT22;11508;50.856;4.380;2023-07-29T01:02:44;18.90;95.40
22682;DHT22;11508;50.856;4.380;2023-07-29T01:05:13;18.90;95.20
22682;DHT22;11508;50.856;4.380;2023-07-29T01:07:43;18.80;93.70
22682;DHT22;11508;50.856;4.380;2023-07-29T01:13:10;18.50;99.90
22682;DHT22;11508;50.856;4.380;2023-07-29T01:18:35;18.60;99.90
22682;DHT22;11508;50.856;4.380;2023-07-29T01:21:04;18.80;99.90
22682;DHT22;11508;50.856;4.380;2023-07-29T01:23:33;18.70;99.90
22682;DHT22;11508;50.856;4.380;2023-07-29T01:25:59;18.70;99.90
22682;DHT22;11508;50.856;4.380;2023-07-29T01:28:25;18.70;99.90
22682;DHT22;11508;50.856;4.380;2023-07-29T01:31:28;18.70;99.90
22682;DHT22;11508;50.856;4.380;2023-07-29T01:36:34;18.40;99.90
22682;DHT22;11508;50.856;4.380;2023-07-29T01:39:04;18.40;99.90
22682;DHT22;11508;50.856;4.380;2023-07-29T01:41:30;18.30;99.90
22682;DHT22;11508;50.856;4.380;2023-07-29T01:43:56;18.40;99.90
22682;DHT22;11508;50.856;4.380;2023-07-29T01:46:22;18.30;99.90
22682;DHT22;11508;50.856;4.380;2023-07-29T01:48:48;18.20;99.90
22682;DHT22;11508;50.856;4.380;2023-07-29T01:51:14;18.30;99.90
22682;DHT22;11508;50.856;4.380;2023-07-29T01:53:39;18.30;99.90
22682;DHT22;11508;50.856;4.380;2023-07-29T01:56:05;18.30;99.90
22682;DHT22;11508;50.856;4.380;2023-07-29T01:58:31;18.20;99.90
22682;DHT22;11508;50.856;4.380;2023-07-29T02:00:57;18.20;99.90
22682;DHT22;11508;50.856;4.380;2023-07-29T02:03:22;18.20;99.90
22682;DHT22;11508;50.856;4.380;2023-07-29T02:05:48;18.20;99.90
22682;DHT22;11508;50.856;4.380;2023-07-29T02:08:14;18.20;99.90
22682;DHT22;11508;50.856;4.380;2023-07-29T02:10:40;18.20;99.90
22682;DHT22;11508;50.856;4.380;2023-07-29T02:13:06;18.20;99.90
22682;DHT22;11508;50.856;4.380;2023-07-29T02:15:31;18.30;99.90
22682;DHT22;11508;50.856;4.380;2023-07-29T02:17:57;18.30;99.90
22682;DHT22;11508;50.856;4.380;2023-07-29T02:20:24;18.20;99.90
22682;DHT22;11508;50.856;4.380;2023-07-29T02:22:50;18.20;99.90
22682;DHT22;11508;50.856;4.380;2023-07-29T02:25:15;18.20;99.90
22682;DHT22;11508;50.856;4.380;2023-07-29T02:27:41;18.10;99.90
22682;DHT22;11508;50.856;4.380;2023-07-29T02:30:07;18.00;99.90
22682;DHT22;11508;50.856;4.380;2023-07-29T02:32:35;18.10;99.90
22682;DHT22;11508;50.856;4.380;2023-07-29T02:35:00;18.10;99.90
22682;DHT22;11508;50.856;4.380;2023-07-29T02:37:26;18.00;99.90
22682;DHT22;11508;50.856;4.380;2023-07-29T02:39:52;18.00;99.90
22682;DHT22;11508;50.856;4.380;2023-07-29T02:42:17;18.00;99.90
22682;DHT22;11508;50.856;4.380;2023-07-29T02:44:43;18.00;99.90
22682;DHT22;11508;50.856;4.380;2023-07-29T02:47:09;17.90;99.90
22682;DHT22;11508;50.856;4.380;2023-07-29T02:49:34;18.00;99.90
22682;DHT22;11508;50.856;4.380;2023-07-29T02:52:00;17.90;99.90
22682;DHT22;11508;50.856;4.380;2023-07-29T02:54:26;17.90;99.90
22682;DHT22;11508;50.856;4.380;2023-07-29T02:56:51;17.90;99.90
22682;DHT22;11508;50.856;4.380;2023-07-29T02:59:17;18.00;99.90
22682;DHT22;11508;50.856;4.380;2023-07-29T03:01:42;18.00;99.90
22682;DHT22;11508;50.856;4.380;2023-07-29T03:04:08;18.00;99.90
22682;DHT22;11508;50.856;4.380;2023-07-29T03:06:34;18.00;99.90
22682;DHT22;11508;50.856;4.380;2023-07-29T03:08:59;18.10;99.90
22682;DHT22;11508;50.856;4.380;2023-07-29T03:11:25;18.10;95.90
22682;DHT22;11508;50.856;4.380;2023-07-29T03:13:51;18.10;96.50
22682;DHT22;11508;50.856;4.380;2023-07-29T03:16:17;18.00;95.70
22682;DHT22;11508;50.856;4.380;2023-07-29T03:18:44;18.10;93.70
22682;DHT22;11508;50.856;4.380;2023-07-29T03:21:10;18.20;90.50
22682;DHT22;11508;50.856;4.380;2023-07-29T03:23:37;18.20;87.40
22682;DHT22;11508;50.856;4.380;2023-07-29T03:26:03;18.20;89.30
22682;DHT22;11508;50.856;4.380;2023-07-29T03:28:37;18.10;92.20
22682;DHT22;11508;50.856;4.380;2023-07-29T03:31:03;18.00;93.20
22682;DHT22;11508;50.856;4.380;2023-07-29T03:33:29;17.90;97.90
22682;DHT22;11508;50.856;4.380;2023-07-29T03:35:55;17.90;97.20
22682;DHT22;11508;50.856;4.380;2023-07-29T03:38:20;17.90;96.70
22682;DHT22;11508;50.856;4.380;2023-07-29T03:40:46;17.90;97.60
22682;DHT22;11508;50.856;4.380;2023-07-29T03:43:12;17.80;99.90
22682;DHT22;11508;50.856;4.380;2023-07-29T03:45:38;17.90;99.90
22682;DHT22;11508;50.856;4.380;2023-07-29T03:48:05;17.90;98.30
22682;DHT22;11508;50.856;4.380;2023-07-29T03:50:34;17.90;99.80
22682;DHT22;11508;50.856;4.380;2023-07-29T03:53:04;17.80;99.90
22682;DHT22;11508;50.856;4.380;2023-07-29T03:55:31;17.70;99.90
22682;DHT22;11508;50.856;4.380;2023-07-29T03:57:58;17.80;99.90
22682;DHT22;11508;50.856;4.380;2023-07-29T04:00:24;17.70;99.90
22682;DHT22;11508;50.856;4.380;2023-07-29T04:02:49;17.70;99.90
22682;DHT22;11508;50.856;4.380;2023-07-29T04:05:16;17.70;99.90
22682;DHT22;11508;50.856;4.380;2023-07-29T04:07:41;17.70;99.90
22682;DHT22;11508;50.856;4.380;2023-07-29T04:10:07;17.70;99.90
22682;DHT22;11508;50.856;4.380;2023-07-29T04:12:33;17.70;99.90
22682;DHT22;11508;50.856;4.380;2023-07-29T04:14:59;17.60;99.90
22682;DHT22;11508;50.856;4.380;2023-07-29T04:17:25;17.70;99.90
22682;DHT22;11508;50.856;4.380;2023-07-29T04:19:50;17.70;99.90
22682;DHT22;11508;50.856;4.380;2023-07-29T04:22:16;17.70;99.90
22682;DHT22;11508;50.856;4.380;2023-07-29T04:24:42;17.70;99.90
22682;DHT22;11508;50.856;4.380;2023-07-29T04:27:08;17.70;99.90
22682;DHT22;11508;50.856;4.380;2023-07-29T04:29:34;17.70;99.90
22682;DHT22;11508;50.856;4.380;2023-07-29T04:32:01;17.60;99.90
22682;DHT22;11508;50.856;4.380;2023-07-29T04:34:27;17.70;99.90
22682;DHT22;11508;50.856;4.380;2023-07-29T04:36:53;17.70;99.90
22682;DHT22;11508;50.856;4.380;2023-07-29T04:39:18;17.80;99.90
22682;DHT22;11508;50.856;4.380;2023-07-29T04:41:44;17.80;99.90
22682;DHT22;11508;50.856;4.380;2023-07-29T04:44:10;17.80;99.90
22682;DHT22;11508;50.856;4.380;2023-07-29T04:46:36;17.80;99.90
22682;DHT22;11508;50.856;4.380;2023-07-29T04:49:02;17.30;99.90
22682;DHT22;11508;50.856;4.380;2023-07-29T04:51:28;17.80;99.90
22682;DHT22;11508;50.856;4.380;2023-07-29T04:53:54;17.80;99.90
22682;DHT22;11508;50.856;4.380;2023-07-29T04:56:19;17.80;99.90
22682;DHT22;11508;50.856;4.380;2023-07-29T04:58:45;17.80;99.90
22682;DHT22;11508;50.856;4.380;2023-07-29T05:01:11;17.80;99.90
22682;DHT22;11508;50.856;4.380;2023-07-29T05:03:36;17.80;99.90
22682;DHT22;11508;50.856;4.380;2023-07-29T05:06:03;17.80;99.90
22682;DHT22;11508;50.856;4.380;2023-07-29T05:08:29;17.80;99.90
22682;DHT22;11508;50.856;4.380;2023-07-29T05:10:55;17.90;99.90
22682;DHT22;11508;50.856;4.380;2023-07-29T05:13:21;17.90;99.90
22682;DHT22;11508;50.856;4.380;2023-07-29T05:15:48;17.90;99.90
22682;DHT22;11508;50.856;4.380;2023-07-29T05:18:14;18.00;99.90
22682;DHT22;11508;50.856;4.380;2023-07-29T05:20:40;18.10;98.90
22682;DHT22;11508;50.856;4.380;2023-07-29T05:23:06;18.20;92.50
22682;DHT22;11508;50.856;4.380;2023-07-29T05:25:32;18.30;86.90
22682;DHT22;11508;50.856;4.380;2023-07-29T05:28:03;18.40;83.90
22682;DHT22;11508;50.856;4.380;2023-07-29T05:30:29;18.30;79.80
22682;DHT22;11508;50.856;4.380;2023-07-29T05:33:00;18.20;84.30
22682;DHT22;11508;50.856;4.380;2023-07-29T05:35:26;18.20;90.10
22682;DHT22;11508;50.856;4.380;2023-07-29T05:37:51;18.20;90.60
22682;DHT22;11508;50.856;4.380;2023-07-29T05:40:17;18.40;86.40
22682;DHT22;11508;50.856;4.380;2023-07-29T05:42:43;18.60;85.10
22682;DHT22;11508;50.856;4.380;2023-07-29T05:45:10;18.80;64.30
22682;DHT22;11508;50.856;4.380;2023-07-29T05:47:36;19.10;53.30
22682;DHT22;11508;50.856;4.380;2023-07-29T05:50:03;19.20;31.20
22682;DHT22;11508;50.856;4.380;2023-07-29T05:52:30;19.30;17.90
22682;DHT22;11508;50.856;4.380;2023-07-29T05:54:56;19.20;21.40
22682;DHT22;11508;50.856;4.380;2023-07-29T05:57:22;19.00;22.70
22682;DHT22;11508;50.856;4.380;2023-07-29T05:59:47;19.40;5.80
22682;DHT22;11508;50.856;4.380;2023-07-29T06:02:13;19.40;1.00
22682;DHT22;11508;50.856;4.380;2023-07-29T06:04:39;19.30;3.80
22682;DHT22;11508;50.856;4.380;2023-07-29T06:07:05;19.10;2.40
22682;DHT22;11508;50.856;4.380;2023-07-29T06:09:31;18.90;16.40
22682;DHT22;11508;50.856;4.380;2023-07-29T06:11:57;19.00;18.80
22682;DHT22;11508;50.856;4.380;2023-07-29T06:14:22;19.20;8.70
22682;DHT22;11508;50.856;4.380;2023-07-29T06:16:48;19.60;2.20
22682;DHT22;11508;50.856;4.380;2023-07-29T06:19:14;20.80;1.00
22682;DHT22;11508;50.856;4.380;2023-07-29T06:21:40;22.10;1.00
22682;DHT22;11508;50.856;4.380;2023-07-29T06:24:05;22.30;1.00
22682;DHT22;11508;50.856;4.380;2023-07-29T06:26:31;21.50;1.00
22682;DHT22;11508;50.856;4.380;2023-07-29T06:28:56;21.20;1.00
22682;DHT22;11508;50.856;4.380;2023-07-29T06:31:22;21.40;1.00
22682;DHT22;11508;50.856;4.380;2023-07-29T06:33:48;20.90;1.00
22682;DHT22;11508;50.856;4.380;2023-07-29T06:36:13;20.90;1.00
22682;DHT22;11508;50.856;4.380;2023-07-29T06:38:39;21.20;99.90
22682;DHT22;11508;50.856;4.380;2023-07-29T06:41:06;21.30;99.90
22682;DHT22;11508;50.856;4.380;2023-07-29T06:43:32;20.70;99.90
22682;DHT22;11508;50.856;4.380;2023-07-29T06:45:57;20.40;1.00
22682;DHT22;11508;50.856;4.380;2023-07-29T06:48:23;20.70;99.90
22682;DHT22;11508;50.856;4.380;2023-07-29T06:50:49;21.10;99.90
22682;DHT22;11508;50.856;4.380;2023-07-29T06:53:16;21.20;99.90
22682;DHT22;11508;50.856;4.380;2023-07-29T06:55:42;21.10;99.90
22682;DHT22;11508;50.856;4.380;2023-07-29T06:58:08;20.80;99.90
22682;DHT22;11508;50.856;4.380;2023-07-29T07:00:33;20.60;99.90
22682;DHT22;11508;50.856;4.380;2023-07-29T07:02:59;20.10;1.00
22682;DHT22;11508;50.856;4.380;2023-07-29T07:05:25;19.90;1.00
22682;DHT22;11508;50.856;4.380;2023-07-29T07:07:50;19.80;1.00
22682;DHT22;11508;50.856;4.380;2023-07-29T07:10:16;19.90;1.00
22682;DHT22;11508;50.856;4.380;2023-07-29T07:12:42;19.80;1.00
22682;DHT22;11508;50.856;4.380;2023-07-29T07:15:08;19.80;1.00
22682;DHT22;11508;50.856;4.380;2023-07-29T07:17:33;19.70;1.00
22682;DHT22;11508;50.856;4.380;2023-07-29T07:19:59;19.60;1.00
22682;DHT22;11508;50.856;4.380;2023-07-29T07:22:25;19.40;1.00
22682;DHT22;11508;50.856;4.380;2023-07-29T07:24:50;19.40;1.00
22682;DHT22;11508;50.856;4.380;2023-07-29T07:27:16;19.50;1.00
22682;DHT22;11508;50.856;4.380;2023-07-29T07:29:42;19.40;1.00
22682;DHT22;11508;50.856;4.380;2023-07-29T07:32:07;19.50;1.00
22682;DHT22;11508;50.856;4.380;2023-07-29T07:34:33;19.60;1.00
22682;DHT22;11508;50.856;4.380;2023-07-29T07:37:00;19.40;1.00
22682;DHT22;11508;50.856;4.380;2023-07-29T07:39:26;19.40;1.00
22682;DHT22;11508;50.856;4.380;2023-07-29T07:41:51;19.40;1.00
22682;DHT22;11508;50.856;4.380;2023-07-29T07:44:17;19.50;3.30
22682;DHT22;11508;50.856;4.380;2023-07-29T07:46:45;19.60;1.00
22682;DHT22;11508;50.856;4.380;2023-07-29T07:49:10;19.70;1.00
22682;DHT22;11508;50.856;4.380;2023-07-29T07:51:36;19.80;1.00
22682;DHT22;11508;50.856;4.380;2023-07-29T07:54:02;19.90;1.00
22682;DHT22;11508;50.856;4.380;2023-07-29T07:56:27;20.10;99.90
22682;DHT22;11508;50.856;4.380;2023-07-29T07:58:53;20.00;99.90
22682;DHT22;11508;50.856;4.380;2023-07-29T08:01:19;20.00;99.90
22682;DHT22;11508;50.856;4.380;2023-07-29T08:03:45;20.40;1.00
22682;DHT22;11508;50.856;4.380;2023-07-29T08:06:10;21.00;1.00
22682;DHT22;11508;50.856;4.380;2023-07-29T08:08:36;21.40;1.00
22682;DHT22;11508;50.856;4.380;2023-07-29T08:11:02;21.70;1.00
22682;DHT22;11508;50.856;4.380;2023-07-29T08:13:27;22.20;1.00
22682;DHT22;11508;50.856;4.380;2023-07-29T08:15:53;22.40;1.00
22682;DHT22;11508;50.856;4.380;2023-07-29T08:18:19;23.10;1.00
22682;DHT22;11508;50.856;4.380;2023-07-29T08:23:18;22.60;1.00
22682;DHT22;11508;50.856;4.380;2023-07-29T08:25:44;23.00;1.00
22682;DHT22;11508;50.856;4.380;2023-07-29T08:28:09;23.60;1.00
22682;DHT22;11508;50.856;4.380;2023-07-29T08:30:36;23.80;1.00
22682;DHT22;11508;50.856;4.380;2023-07-29T08:33:02;24.20;99.90
22682;DHT22;11508;50.856;4.380;2023-07-29T08:35:28;24.20;1.00
22682;DHT22;11508;50.856;4.380;2023-07-29T08:37:53;23.50;1.00
22682;DHT22;11508;50.856;4.380;2023-07-29T08:40:23;22.90;1.00
22682;DHT22;11508;50.856;4.380;2023-07-29T08:42:51;22.50;99.90
22682;DHT22;11508;50.856;4.380;2023-07-29T08:45:17;22.40;99.90
22682;DHT22;11508;50.856;4.380;2023-07-29T08:47:43;22.60;99.90
22682;DHT22;11508;50.856;4.380;2023-07-29T08:50:09;23.00;99.90
22682;DHT22;11508;50.856;4.380;2023-07-29T08:52:35;22.70;99.90
22682;DHT22;11508;50.856;4.380;2023-07-29T08:55:01;22.70;99.90
22682;DHT22;11508;50.856;4.380;2023-07-29T08:57:27;22.30;99.90
22682;DHT22;11508;50.856;4.380;2023-07-29T08:59:55;22.60;99.90
22682;DHT22;11508;50.856;4.380;2023-07-29T09:02:20;23.30;99.90
22682;DHT22;11508;50.856;4.380;2023-07-29T09:04:46;24.50;99.90
22682;DHT22;11508;50.856;4.380;2023-07-29T09:07:12;25.10;99.90
22682;DHT22;11508;50.856;4.380;2023-07-29T09:09:38;25.30;99.90
22682;DHT22;11508;50.856;4.380;2023-07-29T09:12:04;25.50;99.90
22682;DHT22;11508;50.856;4.380;2023-07-29T09:14:30;25.70;99.90
22682;DHT22;11508;50.856;4.380;2023-07-29T09:16:55;24.10;99.90
22682;DHT22;11508;50.856;4.380;2023-07-29T09:19:25;23.40;99.90
22682;DHT22;11508;50.856;4.380;2023-07-29T09:21:52;23.20;99.90
22682;DHT22;11508;50.856;4.380;2023-07-29T09:24:17;23.20;99.90
22682;DHT22;11508;50.856;4.380;2023-07-29T09:26:50;23.20;99.90
22682;DHT22;11508;50.856;4.380;2023-07-29T09:29:16;23.00;99.90
22682;DHT22;11508;50.856;4.380;2023-07-29T09:31:46;23.20;99.90
22682;DHT22;11508;50.856;4.380;2023-07-29T09:34:15;23.00;99.90
22682;DHT22;11508;50.856;4.380;2023-07-29T09:36:42;22.80;99.90
22682;DHT22;11508;50.856;4.380;2023-07-29T09:39:11;22.70;99.90
22682;DHT22;11508;50.856;4.380;2023-07-29T09:41:38;22.30;99.90
22682;DHT22;11508;50.856;4.380;2023-07-29T09:44:04;21.90;99.90
22682;DHT22;11508;50.856;4.380;2023-07-29T09:46:36;21.80;99.90
22682;DHT22;11508;50.856;4.380;2023-07-29T09:49:07;22.00;99.90
22682;DHT22;11508;50.856;4.380;2023-07-29T09:51:37;21.80;99.90
22682;DHT22;11508;50.856;4.380;2023-07-29T09:54:04;21.70;99.90
22682;DHT22;11508;50.856;4.380;2023-07-29T09:56:30;21.70;99.90
22682;DHT22;11508;50.856;4.380;2023-07-29T09:58:56;21.80;99.90
22682;DHT22;11508;50.856;4.380;2023-07-29T10:01:23;21.80;99.90
22682;DHT22;11508;50.856;4.380;2023-07-29T10:03:49;22.90;99.90
22682;DHT22;11508;50.856;4.380;2023-07-29T10:06:15;23.70;99.90
22682;DHT22;11508;50.856;4.380;2023-07-29T10:08:42;24.40;99.90
22682;DHT22;11508;50.856;4.380;2023-07-29T10:11:09;25.40;1.00
22682;DHT22;11508;50.856;4.380;2023-07-29T10:13:36;25.20;1.00
22682;DHT22;11508;50.856;4.380;2023-07-29T10:16:03;25.40;1.00
22682;DHT22;11508;50.856;4.380;2023-07-29T10:18:30;25.10;1.00
22682;DHT22;11508;50.856;4.380;2023-07-29T10:20:58;26.60;99.90
22682;DHT22;11508;50.856;4.380;2023-07-29T10:23:25;27.20;69.60
22682;DHT22;11508;50.856;4.380;2023-07-29T10:26:12;26.70;1.00
22682;DHT22;11508;50.856;4.380;2023-07-29T10:28:41;25.60;99.90
22682;DHT22;11508;50.856;4.380;2023-07-29T10:31:08;24.90;99.90
22682;DHT22;11508;50.856;4.380;2023-07-29T10:33:34;24.50;99.90
22682;DHT22;11508;50.856;4.380;2023-07-29T10:36:00;24.10;99.90
22682;DHT22;11508;50.856;4.380;2023-07-29T10:38:27;23.40;1.00
22682;DHT22;11508;50.856;4.380;2023-07-29T10:40:54;22.70;1.00
22682;DHT22;11508;50.856;4.380;2023-07-29T10:43:38;21.20;83.60
22682;DHT22;11508;50.856;4.380;2023-07-29T10:46:18;20.50;99.90
22682;DHT22;11508;50.856;4.380;2023-07-29T10:48:53;20.30;99.90
22682;DHT22;11508;50.856;4.380;2023-07-29T10:53:47;20.00;99.90
22682;DHT22;11508;50.856;4.380;2023-07-29T10:56:13;20.00;99.90
22682;DHT22;11508;50.856;4.380;2023-07-29T10:58:38;20.10;99.90
22682;DHT22;11508;50.856;4.380;2023-07-29T11:01:12;20.30;99.90
22682;DHT22;11508;50.856;4.380;2023-07-29T11:03:38;20.40;99.90
22682;DHT22;11508;50.856;4.380;2023-07-29T11:06:07;20.40;99.90
22682;DHT22;11508;50.856;4.380;2023-07-29T11:08:32;20.30;99.90
22682;DHT22;11508;50.856;4.380;2023-07-29T11:11:06;20.30;99.90
22682;DHT22;11508;50.856;4.380;2023-07-29T11:13:34;20.10;99.90
22682;DHT22;11508;50.856;4.380;2023-07-29T11:16:00;20.10;99.90
22682;DHT22;11508;50.856;4.380;2023-07-29T11:18:32;20.10;99.90
22682;DHT22;11508;50.856;4.380;2023-07-29T11:20:59;20.00;99.90
22682;DHT22;11508;50.856;4.380;2023-07-29T11:23:30;20.10;99.90
22682;DHT22;11508;50.856;4.380;2023-07-29T11:25:56;20.10;99.90
22682;DHT22;11508;50.856;4.380;2023-07-29T11:28:22;20.20;99.90
22682;DHT22;11508;50.856;4.380;2023-07-29T11:30:50;20.20;99.90
22682;DHT22;11508;50.856;4.380;2023-07-29T11:33:19;20.30;99.90
22682;DHT22;11508;50.856;4.380;2023-07-29T11:35:45;20.30;99.90
22682;DHT22;11508;50.856;4.380;2023-07-29T11:38:18;20.70;99.90
22682;DHT22;11508;50.856;4.380;2023-07-29T11:40:54;21.00;70.80
22682;DHT22;11508;50.856;4.380;2023-07-29T11:43:20;21.70;60.50
22682;DHT22;11508;50.856;4.380;2023-07-29T11:45:45;22.40;10.50
22682;DHT22;11508;50.856;4.380;2023-07-29T11:48:11;23.10;1.00
22682;DHT22;11508;50.856;4.380;2023-07-29T11:50:37;23.80;1.00
22682;DHT22;11508;50.856;4.380;2023-07-29T11:53:03;24.10;1.00
22682;DHT22;11508;50.856;4.380;2023-07-29T11:55:28;24.10;1.00
22682;DHT22;11508;50.856;4.380;2023-07-29T11:57:55;24.50;1.00
22682;DHT22;11508;50.856;4.380;2023-07-29T12:00:21;24.80;1.00
22682;DHT22;11508;50.856;4.380;2023-07-29T12:02:48;25.20;99.90
22682;DHT22;11508;50.856;4.380;2023-07-29T12:05:15;25.60;99.90
22682;DHT22;11508;50.856;4.380;2023-07-29T12:07:42;25.80;99.90
22682;DHT22;11508;50.856;4.380;2023-07-29T12:10:09;24.20;99.90
22682;DHT22;11508;50.856;4.380;2023-07-29T12:12:45;23.20;1.00
22682;DHT22;11508;50.856;4.380;2023-07-29T12:15:11;22.10;27.50
22682;DHT22;11508;50.856;4.380;2023-07-29T12:17:41;21.30;96.40
22682;DHT22;11508;50.856;4.380;2023-07-29T12:20:10;20.70;99.90
22682;DHT22;11508;50.856;4.380;2023-07-29T12:22:36;20.50;99.90
22682;DHT22;11508;50.856;4.380;2023-07-29T12:25:03;20.70;99.90
22682;DHT22;11508;50.856;4.380;2023-07-29T12:27:30;20.90;99.90
22682;DHT22;11508;50.856;4.380;2023-07-29T12:29:57;20.90;96.70
22682;DHT22;11508;50.856;4.380;2023-07-29T12:32:25;21.00;99.90
22682;DHT22;11508;50.856;4.380;2023-07-29T12:34:53;21.20;97.20
22682;DHT22;11508;50.856;4.380;2023-07-29T12:37:19;21.30;76.60
22682;DHT22;11508;50.856;4.380;2023-07-29T12:39:44;21.30;83.60
22682;DHT22;11508;50.856;4.380;2023-07-29T12:42:10;21.40;71.50
22682;DHT22;11508;50.856;4.380;2023-07-29T12:44:37;21.50;89.70
22682;DHT22;11508;50.856;4.380;2023-07-29T12:47:05;21.90;65.90
22682;DHT22;11508;50.856;4.380;2023-07-29T12:49:31;22.30;37.20
22682;DHT22;11508;50.856;4.380;2023-07-29T12:51:58;22.80;29.60
22682;DHT22;11508;50.856;4.380;2023-07-29T12:54:23;23.10;1.00
22682;DHT22;11508;50.856;4.380;2023-07-29T12:56:49;23.20;1.00
22682;DHT22;11508;50.856;4.380;2023-07-29T12:59:15;23.40;1.00
22682;DHT22;11508;50.856;4.380;2023-07-29T13:01:41;23.10;1.00
22682;DHT22;11508;50.856;4.380;2023-07-29T13:04:07;23.40;1.00
22682;DHT22;11508;50.856;4.380;2023-07-29T13:06:32;23.50;1.00
22682;DHT22;11508;50.856;4.380;2023-07-29T13:08:58;24.10;1.00
22682;DHT22;11508;50.856;4.380;2023-07-29T13:11:24;25.00;1.00
22682;DHT22;11508;50.856;4.380;2023-07-29T13:13:49;24.70;96.10
22682;DHT22;11508;50.856;4.380;2023-07-29T13:16:15;23.80;1.00
22682;DHT22;11508;50.856;4.380;2023-07-29T13:18:43;23.20;1.00
22682;DHT22;11508;50.856;4.380;2023-07-29T13:21:09;22.90;1.00
22682;DHT22;11508;50.856;4.380;2023-07-29T13:23:34;22.70;1.00
22682;DHT22;11508;50.856;4.380;2023-07-29T13:26:00;22.80;1.00
22682;DHT22;11508;50.856;4.380;2023-07-29T13:28:26;22.90;1.00
22682;DHT22;11508;50.856;4.380;2023-07-29T13:30:51;22.70;1.00
22682;DHT22;11508;50.856;4.380;2023-07-29T13:33:17;22.40;1.00
22682;DHT22;11508;50.856;4.380;2023-07-29T13:35:43;22.50;1.00
22682;DHT22;11508;50.856;4.380;2023-07-29T13:38:08;22.60;1.00
22682;DHT22;11508;50.856;4.380;2023-07-29T13:40:34;22.90;1.00
22682;DHT22;11508;50.856;4.380;2023-07-29T13:43:00;23.20;1.00
22682;DHT22;11508;50.856;4.380;2023-07-29T13:45:26;23.00;1.00
22682;DHT22;11508;50.856;4.380;2023-07-29T13:47:51;22.90;1.00
22682;DHT22;11508;50.856;4.380;2023-07-29T13:50:17;22.80;1.00
22682;DHT22;11508;50.856;4.380;2023-07-29T13:52:43;22.90;1.00
22682;DHT22;11508;50.856;4.380;2023-07-29T13:55:09;23.10;1.00
22682;DHT22;11508;50.856;4.380;2023-07-29T13:57:35;23.10;1.00
22682;DHT22;11508;50.856;4.380;2023-07-29T14:00:01;23.30;1.00
22682;DHT22;11508;50.856;4.380;2023-07-29T14:02:27;23.00;1.00
22682;DHT22;11508;50.856;4.380;2023-07-29T14:04:53;22.90;1.00
22682;DHT22;11508;50.856;4.380;2023-07-29T14:07:18;22.70;1.00
22682;DHT22;11508;50.856;4.380;2023-07-29T14:09:44;22.40;1.00
22682;DHT22;11508;50.856;4.380;2023-07-29T14:12:10;22.30;1.00
22682;DHT22;11508;50.856;4.380;2023-07-29T14:14:40;22.40;1.00
22682;DHT22;11508;50.856;4.380;2023-07-29T14:17:06;22.70;1.00
22682;DHT22;11508;50.856;4.380;2023-07-29T14:19:34;22.80;1.00
22682;DHT22;11508;50.856;4.380;2023-07-29T14:21:59;22.90;1.00
22682;DHT22;11508;50.856;4.380;2023-07-29T14:24:25;23.00;1.00
22682;DHT22;11508;50.856;4.380;2023-07-29T14:26:51;23.20;1.00
22682;DHT22;11508;50.856;4.380;2023-07-29T14:29:16;23.20;1.00
22682;DHT22;11508;50.856;4.380;2023-07-29T14:31:42;23.30;99.90
22682;DHT22;11508;50.856;4.380;2023-07-29T14:34:08;23.30;99.90
22682;DHT22;11508;50.856;4.380;2023-07-29T14:36:34;23.10;99.90
22682;DHT22;11508;50.856;4.380;2023-07-29T14:38:59;23.30;99.90
22682;DHT22;11508;50.856;4.380;2023-07-29T14:41:25;23.40;99.90
22682;DHT22;11508;50.856;4.380;2023-07-29T14:43:51;23.40;99.90
22682;DHT22;11508;50.856;4.380;2023-07-29T14:46:17;23.40;99.90
22682;DHT22;11508;50.856;4.380;2023-07-29T14:48:43;23.40;99.90
22682;DHT22;11508;50.856;4.380;2023-07-29T14:51:09;23.40;99.90
22682;DHT22;11508;50.856;4.380;2023-07-29T14:53:34;23.10;99.90
22682;DHT22;11508;50.856;4.380;2023-07-29T14:56:00;23.10;99.90
22682;DHT22;11508;50.856;4.380;2023-07-29T14:58:25;23.10;99.90
22682;DHT22;11508;50.856;4.380;2023-07-29T15:00:54;23.10;99.90
22682;DHT22;11508;50.856;4.380;2023-07-29T15:03:20;23.20;99.90
22682;DHT22;11508;50.856;4.380;2023-07-29T15:05:45;23.20;99.90
22682;DHT22;11508;50.856;4.380;2023-07-29T15:08:11;23.30;99.90
22682;DHT22;11508;50.856;4.380;2023-07-29T15:10:37;23.40;99.90
22682;DHT22;11508;50.856;4.380;2023-07-29T15:13:02;23.40;99.90
22682;DHT22;11508;50.856;4.380;2023-07-29T15:15:28;23.20;99.90
22682;DHT22;11508;50.856;4.380;2023-07-29T15:17:54;23.40;99.90
22682;DHT22;11508;50.856;4.380;2023-07-29T15:20:19;22.90;99.90
22682;DHT22;11508;50.856;4.380;2023-07-29T15:22:45;22.70;1.00
22682;DHT22;11508;50.856;4.380;2023-07-29T15:25:11;22.60;99.90
22682;DHT22;11508;50.856;4.380;2023-07-29T15:27:37;22.70;99.90
22682;DHT22;11508;50.856;4.380;2023-07-29T15:30:05;22.90;99.90
22682;DHT22;11508;50.856;4.380;2023-07-29T15:32:31;22.80;99.90
22682;DHT22;11508;50.856;4.380;2023-07-29T15:34:56;22.80;99.90
22682;DHT22;11508;50.856;4.380;2023-07-29T15:37:25;22.90;99.90
22682;DHT22;11508;50.856;4.380;2023-07-29T15:39:51;22.70;99.90
22682;DHT22;11508;50.856;4.380;2023-07-29T15:42:17;22.60;99.90
22682;DHT22;11508;50.856;4.380;2023-07-29T15:44:43;22.40;99.90